Time;durP1;ratioP1;P1;durP2;ratioP2;P2;SDS_P1;SDS_P2;PMS_P1;PMS_P2;Temp;Humidity;BMP_temperature;BMP_pressure;BME280_temperature;BME280_humidity;BME280_pressure;Samples;Min_cycle;Max_cycle;Signal;HPM_P1;HPM_P2
2023/06/05 00:01:34;;;;;;;13.70;9.93;;;;;;;;;;5097332;28;20450;-73
2023/06/05 00:04:01;;;;;;;13.90;9.97;;;;;;;;;;5097011;28;20516;-73
2023/06/05 00:06:29;;;;;;;12.23;10.00;;;;;;;;;;5096863;28;20454;-73
2023/06/05 00:08:56;;;;;;;17.53;10.70;;;;;;;;;;5097049;28;20983;-73
2023/06/05 00:11:23;;;;;;;12.70;8.97;;;;;;;;;;5097196;28;20453;-73
2023/06/05 00:13:51;;;;;;;13.30;8.80;;;;;;;;;;5097332;28;20449;-73
2023/06/05 00:16:18;;;;;;;13.37;8.63;;;;;;;;;;5097067;28;20817;-73
2023/06/05 00:18:45;;;;;;;11.43;7.70;;;;;;;;;;5096938;28;20465;-73
2023/06/05 00:21:12;;;;;;;10.10;8.93;;;;;;;;;;5096998;28;20864;-73
2023/06/05 00:23:40;;;;;;;16.17;9.90;;;;;;;;;;5096785;28;20497;-73
2023/06/05 00:26:07;;;;;;;11.47;9.03;;;;;;;;;;5096494;28;20450;-73
2023/06/05 00:28:35;;;;;;;12.10;8.83;;;;;;;;;;5096707;28;20475;-73
2023/06/05 00:31:02;;;;;;;14.20;9.10;;;;;;;;;;5096697;28;20446;-73
2023/06/05 00:33:30;;;;;;;18.20;9.30;;;;;;;;;;5096601;28;20451;-73
2023/06/05 00:35:57;;;;;;;13.67;7.90;;;;;;;;;;5096311;28;20458;-73
2023/06/05 00:38:24;;;;;;;14.07;9.17;;;;;;;;;;5096603;28;20457;-72
2023/06/05 00:40:52;;;;;;;10.63;8.63;;;;;;;;;;5096521;28;20971;-73
2023/06/05 00:43:19;;;;;;;15.80;9.73;;;;;;;;;;5096357;28;20470;-73
2023/06/05 00:45:47;;;;;;;12.87;9.40;;;;;;;;;;5096527;28;20447;-73
2023/06/05 00:48:14;;;;;;;12.67;8.67;;;;;;;;;;5096158;28;20466;-73
2023/06/05 00:50:41;;;;;;;14.63;9.23;;;;;;;;;;5095909;28;20462;-74
2023/06/05 00:53:09;;;;;;;10.83;9.20;;;;;;;;;;5095954;28;20821;-74
2023/06/05 00:55:37;;;;;;;8.53;7.67;;;;;;;;;;5095976;28;20501;-74
2023/06/05 00:58:05;;;;;;;11.40;8.40;;;;;;;;;;5095953;28;20545;-74
2023/06/05 01:00:34;;;;;;;9.70;8.00;;;;;;;;;;5095587;28;20471;-74
2023/06/05 01:03:01;;;;;;;8.93;7.87;;;;;;;;;;5095624;28;20954;-74
2023/06/05 01:05:28;;;;;;;9.37;8.43;;;;;;;;;;5095568;28;20459;-74
2023/06/05 01:07:56;;;;;;;10.93;8.40;;;;;;;;;;5095764;28;20984;-74
2023/06/05 01:10:23;;;;;;;13.47;8.10;;;;;;;;;;5095309;28;20505;-74
2023/06/05 01:12:52;;;;;;;8.73;7.83;;;;;;;;;;5095646;28;20473;-74
2023/06/05 01:15:28;;;;;;;13.53;8.20;;;;;;;;;;5095537;28;20567;-74
2023/06/05 01:17:56;;;;;;;7.80;6.83;;;;;;;;;;5095494;28;20493;-75
2023/06/05 01:20:23;;;;;;;9.30;8.10;;;;;;;;;;5095209;28;20466;-74
2023/06/05 01:22:53;;;;;;;9.90;8.60;;;;;;;;;;5095441;28;20454;-74
2023/06/05 01:25:21;;;;;;;15.50;8.97;;;;;;;;;;5095279;28;20907;-74
2023/06/05 01:27:53;;;;;;;10.97;8.20;;;;;;;;;;5095584;28;20448;-74
2023/06/05 01:30:28;;;;;;;11.03;8.63;;;;;;;;;;5094890;28;20474;-74
2023/06/05 01:33:01;;;;;;;17.13;9.40;;;;;;;;;;5095279;28;20457;-74
2023/06/05 01:35:29;;;;;;;9.37;8.00;;;;;;;;;;5095284;28;20443;-74
2023/06/05 01:37:59;;;;;;;10.70;9.10;;;;;;;;;;5095135;28;20523;-74
2023/06/05 01:40:26;;;;;;;9.63;8.33;;;;;;;;;;5094760;28;20486;-75
2023/06/05 01:42:55;;;;;;;11.43;8.07;;;;;;;;;;5094998;28;20454;-75
2023/06/05 01:45:22;;;;;;;10.17;8.30;;;;;;;;;;5094881;28;20540;-74
2023/06/05 01:47:49;;;;;;;11.33;8.43;;;;;;;;;;5094441;28;20461;-74
2023/06/05 01:50:17;;;;;;;10.97;8.07;;;;;;;;;;5094608;28;20470;-75
2023/06/05 01:52:46;;;;;;;14.83;7.60;;;;;;;;;;5094859;28;20455;-74
2023/06/05 01:55:20;;;;;;;8.27;7.37;;;;;;;;;;5094758;28;20446;-74
2023/06/05 01:57:47;;;;;;;8.83;7.30;;;;;;;;;;5094612;28;20471;-74
2023/06/05 02:00:15;;;;;;;12.57;7.80;;;;;;;;;;5094404;28;20486;-74
2023/06/05 02:02:42;;;;;;;14.80;8.43;;;;;;;;;;5094085;28;20450;-74
2023/06/05 02:05:10;;;;;;;15.20;8.47;;;;;;;;;;5094391;28;20482;-75
2023/06/05 02:07:38;;;;;;;13.43;9.80;;;;;;;;;;5094554;28;20442;-75
2023/06/05 02:10:05;;;;;;;12.73;8.00;;;;;;;;;;5094096;28;20581;-74
2023/06/05 02:12:34;;;;;;;16.23;9.37;;;;;;;;;;5094350;28;20462;-75
2023/06/05 02:15:01;;;;;;;14.90;9.20;;;;;;;;;;5094555;28;20807;-75
2023/06/05 02:17:29;;;;;;;17.47;9.53;;;;;;;;;;5094510;28;20533;-74
2023/06/05 02:19:56;;;;;;;11.83;8.33;;;;;;;;;;5094067;28;20463;-74
2023/06/05 02:22:24;;;;;;;15.57;9.30;;;;;;;;;;5093996;28;20477;-74
2023/06/05 02:24:51;;;;;;;9.33;7.43;;;;;;;;;;5094201;28;20495;-74
2023/06/05 02:27:19;;;;;;;9.77;8.20;;;;;;;;;;5094109;28;20959;-74
2023/06/05 02:29:47;;;;;;;12.17;7.77;;;;;;;;;;5093933;28;20475;-74
2023/06/05 02:32:14;;;;;;;15.17;6.97;;;;;;;;;;5094206;28;20519;-74
2023/06/05 02:34:41;;;;;;;12.83;7.73;;;;;;;;;;5094063;28;20935;-74
2023/06/05 02:37:11;;;;;;;11.60;7.07;;;;;;;;;;5093875;28;20806;-75
2023/06/05 02:39:38;;;;;;;10.77;8.37;;;;;;;;;;5094290;28;20954;-73
2023/06/05 02:42:08;;;;;;;16.53;8.03;;;;;;;;;;5094531;28;20557;-73
2023/06/05 02:44:35;;;;;;;12.77;7.43;;;;;;;;;;5093873;28;20528;-73
2023/06/05 02:47:03;;;;;;;9.67;7.43;;;;;;;;;;5094114;28;20473;-73
2023/06/05 02:49:32;;;;;;;9.33;8.37;;;;;;;;;;5093530;28;20477;-73
2023/06/05 02:51:59;;;;;;;14.67;9.17;;;;;;;;;;5093767;28;20461;-73
2023/06/05 02:54:28;;;;;;;11.73;8.47;;;;;;;;;;5094008;28;20461;-73
2023/06/05 02:56:56;;;;;;;9.73;8.50;;;;;;;;;;5093779;28;20463;-73
2023/06/05 02:59:24;;;;;;;10.50;8.37;;;;;;;;;;5093836;28;20974;-73
2023/06/05 03:01:52;;;;;;;16.17;9.60;;;;;;;;;;5093824;28;20542;-73
2023/06/05 03:04:23;;;;;;;12.70;8.97;;;;;;;;;;5093770;28;20543;-73
2023/06/05 03:06:50;;;;;;;10.83;8.73;;;;;;;;;;5093819;28;20443;-73
2023/06/05 03:09:17;;;;;;;10.83;8.53;;;;;;;;;;5093692;28;20481;-73
2023/06/05 03:11:44;;;;;;;17.63;8.70;;;;;;;;;;5093903;28;20814;-73
2023/06/05 03:14:12;;;;;;;14.27;9.10;;;;;;;;;;5092543;28;20439;-72
2023/06/05 03:16:41;;;;;;;13.30;9.30;;;;;;;;;;5093668;28;20451;-73
2023/06/05 03:19:09;;;;;;;11.03;8.30;;;;;;;;;;5093264;28;20501;-73
2023/06/05 03:21:39;;;;;;;11.03;8.83;;;;;;;;;;5093709;28;20484;-73
2023/06/05 03:24:06;;;;;;;13.33;8.87;;;;;;;;;;5093515;28;20567;-73
2023/06/05 03:26:34;;;;;;;13.70;9.03;;;;;;;;;;5093553;28;20450;-73
2023/06/05 03:29:01;;;;;;;12.77;8.00;;;;;;;;;;5093316;28;20831;-73
2023/06/05 03:31:28;;;;;;;15.03;8.53;;;;;;;;;;5092475;28;20473;-73
2023/06/05 03:33:55;;;;;;;13.00;8.00;;;;;;;;;;5092846;28;20480;-73
2023/06/05 03:36:22;;;;;;;12.43;9.27;;;;;;;;;;5092869;28;20450;-73
2023/06/05 03:38:51;;;;;;;16.63;8.87;;;;;;;;;;5092528;28;20490;-73
2023/06/05 03:41:18;;;;;;;12.30;9.50;;;;;;;;;;5092713;28;20447;-73
2023/06/05 03:43:46;;;;;;;14.10;8.30;;;;;;;;;;5092690;28;20458;-73
2023/06/05 03:46:17;;;;;;;13.90;8.17;;;;;;;;;;5092314;28;20494;-73
2023/06/05 03:48:45;;;;;;;8.70;7.20;;;;;;;;;;5091829;28;20513;-73
2023/06/05 03:51:12;;;;;;;9.60;8.03;;;;;;;;;;5092543;28;20435;-73
2023/06/05 03:53:43;;;;;;;9.20;6.73;;;;;;;;;;5092513;28;20488;-73
2023/06/05 03:56:12;;;;;;;14.23;8.60;;;;;;;;;;5092475;28;20462;-73
2023/06/05 03:58:39;;;;;;;11.23;7.50;;;;;;;;;;5092482;28;20490;-73
2023/06/05 04:01:07;;;;;;;11.40;7.77;;;;;;;;;;5092475;28;20482;-73
2023/06/05 04:03:36;;;;;;;10.77;7.97;;;;;;;;;;5092308;28;20473;-73
2023/06/05 04:06:04;;;;;;;13.00;8.10;;;;;;;;;;5092162;28;20489;-73
2023/06/05 04:08:32;;;;;;;11.60;7.40;;;;;;;;;;5092189;28;20457;-73
2023/06/05 04:10:59;;;;;;;14.83;9.23;;;;;;;;;;5092408;28;20931;-73
2023/06/05 04:13:27;;;;;;;9.87;8.00;;;;;;;;;;5092157;28;20458;-73
2023/06/05 04:15:54;;;;;;;12.20;8.57;;;;;;;;;;5092451;28;20808;-73
2023/06/05 04:18:22;;;;;;;9.43;7.60;;;;;;;;;;5092485;28;20463;-73
2023/06/05 04:20:49;;;;;;;10.07;7.70;;;;;;;;;;5092276;28;20559;-73
2023/06/05 04:23:16;;;;;;;8.87;7.10;;;;;;;;;;5092104;28;20435;-73
2023/06/05 04:25:45;;;;;;;10.23;7.00;;;;;;;;;;5094297;28;20486;-74
2023/06/05 04:28:12;;;;;;;14.10;7.70;;;;;;;;;;5096124;28;20511;-73
2023/06/05 04:30:41;;;;;;;9.90;8.00;;;;;;;;;;5095753;28;20455;-74
2023/06/05 04:33:08;;;;;;;13.97;8.53;;;;;;;;;;5095797;28;20453;-74
2023/06/05 04:35:35;;;;;;;11.23;8.20;;;;;;;;;;5096042;28;20818;-73
2023/06/05 04:38:02;;;;;;;15.80;8.60;;;;;;;;;;5096037;28;20811;-73
2023/06/05 04:40:31;;;;;;;10.07;8.53;;;;;;;;;;5095566;28;20569;-73
2023/06/05 04:42:58;;;;;;;10.97;8.70;;;;;;;;;;5096015;28;20446;-73
2023/06/05 04:45:25;;;;;;;11.70;8.00;;;;;;;;;;5095604;28;20488;-73
2023/06/05 04:47:54;;;;;;;9.67;8.77;;;;;;;;;;5095492;28;20464;-73
2023/06/05 04:50:25;;;;;;;13.43;8.50;;;;;;;;;;5095743;28;20470;-73
2023/06/05 04:52:53;;;;;;;9.87;8.73;;;;;;;;;;5095655;28;20967;-73
2023/06/05 04:55:21;;;;;;;9.87;8.10;;;;;;;;;;5095492;28;20451;-73
2023/06/05 04:57:48;;;;;;;10.43;7.47;;;;;;;;;;5095524;28;20458;-73
2023/06/05 05:00:16;;;;;;;13.67;7.77;;;;;;;;;;5095537;28;20995;-73
2023/06/05 05:02:43;;;;;;;8.67;6.90;;;;;;;;;;5095517;28;20458;-73
2023/06/05 05:05:13;;;;;;;8.90;6.63;;;;;;;;;;5095199;28;20486;-73
2023/06/05 05:07:40;;;;;;;23.43;9.23;;;;;;;;;;5095462;28;20455;-73
2023/06/05 05:10:08;;;;;;;10.43;7.17;;;;;;;;;;5095522;28;20975;-73
2023/06/05 05:12:35;;;;;;;10.83;7.93;;;;;;;;;;5095356;28;20447;-74
2023/06/05 05:15:03;;;;;;;9.00;7.70;;;;;;;;;;5095175;28;20462;-73
2023/06/05 05:17:31;;;;;;;8.97;7.97;;;;;;;;;;5095102;28;20454;-73
2023/06/05 05:19:58;;;;;;;10.03;7.93;;;;;;;;;;5095161;28;20470;-73
2023/06/05 05:22:27;;;;;;;11.20;7.73;;;;;;;;;;5095350;28;20462;-73
2023/06/05 05:24:54;;;;;;;13.00;7.83;;;;;;;;;;5094770;28;20489;-73
2023/06/05 05:27:22;;;;;;;9.00;7.47;;;;;;;;;;5095060;28;20946;-73
2023/06/05 05:29:49;;;;;;;12.00;7.63;;;;;;;;;;5094971;28;20795;-74
2023/06/05 05:32:16;;;;;;;11.37;7.57;;;;;;;;;;5094978;28;20829;-74
2023/06/05 05:34:43;;;;;;;11.67;6.67;;;;;;;;;;5094951;28;20469;-74
2023/06/05 05:37:11;;;;;;;15.43;10.70;;;;;;;;;;5093942;28;20533;-73
2023/06/05 05:39:39;;;;;;;7.77;6.13;;;;;;;;;;5094497;28;20475;-73
2023/06/05 05:42:06;;;;;;;7.07;5.50;;;;;;;;;;5094879;28;20455;-74
2023/06/05 05:44:33;;;;;;;6.83;6.20;;;;;;;;;;5095326;28;20459;-73
2023/06/05 05:47:01;;;;;;;7.27;6.53;;;;;;;;;;5094675;28;20454;-73
2023/06/05 05:49:28;;;;;;;8.50;5.57;;;;;;;;;;5094515;28;20474;-74
2023/06/05 05:51:55;;;;;;;6.80;5.57;;;;;;;;;;5094735;28;20507;-74
2023/06/05 05:54:26;;;;;;;6.37;5.43;;;;;;;;;;5094471;28;20529;-73
2023/06/05 05:56:55;;;;;;;9.80;6.60;;;;;;;;;;5094316;28;20474;-73
2023/06/05 05:59:22;;;;;;;7.70;5.87;;;;;;;;;;5094330;28;20487;-74
2023/06/05 06:01:50;;;;;;;7.97;6.00;;;;;;;;;;5094557;28;20535;-74
2023/06/05 06:04:18;;;;;;;6.17;5.57;;;;;;;;;;5093855;28;20457;-74
2023/06/05 06:06:47;;;;;;;7.37;5.97;;;;;;;;;;5093823;28;20513;-74
2023/06/05 06:09:15;;;;;;;10.97;6.33;;;;;;;;;;5093790;28;20478;-74
2023/06/05 06:11:43;;;;;;;7.80;6.37;;;;;;;;;;5093774;28;20969;-74
2023/06/05 06:14:12;;;;;;;7.50;6.00;;;;;;;;;;5093909;28;20450;-74
2023/06/05 06:16:40;;;;;;;12.50;6.47;;;;;;;;;;5093644;28;20954;-74
2023/06/05 06:19:08;;;;;;;11.73;5.50;;;;;;;;;;5093504;28;20478;-73
2023/06/05 06:21:35;;;;;;;7.57;5.50;;;;;;;;;;5093778;28;20505;-73
2023/06/05 06:24:04;;;;;;;6.13;5.53;;;;;;;;;;5093621;28;20453;-73
2023/06/05 06:26:31;;;;;;;9.10;5.90;;;;;;;;;;5093858;28;20486;-74
2023/06/05 06:28:59;;;;;;;7.17;5.80;;;;;;;;;;5093820;28;21014;-74
2023/06/05 06:31:28;;;;;;;11.03;6.00;;;;;;;;;;5093534;28;20450;-74
2023/06/05 06:33:55;;;;;;;8.20;6.40;;;;;;;;;;5093822;28;20447;-74
2023/06/05 06:36:22;;;;;;;7.27;5.57;;;;;;;;;;5093743;28;20454;-74
2023/06/05 06:38:50;;;;;;;7.00;6.27;;;;;;;;;;5093622;28;20454;-73
2023/06/05 06:41:17;;;;;;;13.90;6.70;;;;;;;;;;5093436;28;20447;-74
2023/06/05 06:43:44;;;;;;;9.70;6.80;;;;;;;;;;5093576;28;20462;-73
2023/06/05 06:46:11;;;;;;;7.60;6.23;;;;;;;;;;5093557;28;20486;-74
2023/06/05 06:48:40;;;;;;;8.97;6.47;;;;;;;;;;5093269;28;20446;-73
2023/06/05 06:51:07;;;;;;;9.00;6.03;;;;;;;;;;5093280;28;20447;-74
2023/06/05 06:53:34;;;;;;;7.23;5.80;;;;;;;;;;5093195;28;20451;-73
2023/06/05 06:56:01;;;;;;;12.47;7.00;;;;;;;;;;5092931;28;20458;-73
2023/06/05 06:58:28;;;;;;;11.10;5.87;;;;;;;;;;5093401;28;20446;-74
2023/06/05 07:00:55;;;;;;;11.80;6.37;;;;;;;;;;5093236;28;20883;-74
2023/06/05 07:03:23;;;;;;;7.20;6.20;;;;;;;;;;5093211;28;20455;-73
2023/06/05 07:05:52;;;;;;;9.33;6.47;;;;;;;;;;5093011;28;20485;-73
2023/06/05 07:08:19;;;;;;;11.40;6.60;;;;;;;;;;5093285;28;20859;-74
2023/06/05 07:10:46;;;;;;;5.23;4.73;;;;;;;;;;5093221;28;20855;-74
2023/06/05 07:13:13;;;;;;;7.50;5.53;;;;;;;;;;5093027;28;21012;-74
2023/06/05 07:15:40;;;;;;;8.47;6.23;;;;;;;;;;5093153;28;20450;-74
2023/06/05 07:18:07;;;;;;;9.90;6.40;;;;;;;;;;5093055;28;20455;-73
2023/06/05 07:20:35;;;;;;;8.37;6.07;;;;;;;;;;5093051;28;20466;-74
2023/06/05 07:23:03;;;;;;;10.63;5.70;;;;;;;;;;5092967;28;20519;-73
2023/06/05 07:25:30;;;;;;;6.93;5.67;;;;;;;;;;5092732;28;20477;-73
2023/06/05 07:27:59;;;;;;;10.00;5.50;;;;;;;;;;5092985;28;20451;-73
2023/06/05 07:30:26;;;;;;;7.10;6.27;;;;;;;;;;5092934;28;20463;-74
2023/06/05 07:32:53;;;;;;;9.73;5.57;;;;;;;;;;5092913;28;20545;-73
2023/06/05 07:35:21;;;;;;;7.90;7.10;;;;;;;;;;5093157;28;20450;-73
2023/06/05 07:37:48;;;;;;;7.00;5.20;;;;;;;;;;5092983;28;20458;-73
2023/06/05 07:40:17;;;;;;;7.40;6.63;;;;;;;;;;5092694;28;20490;-73
2023/06/05 07:42:44;;;;;;;6.57;4.80;;;;;;;;;;5092795;28;20447;-73
2023/06/05 07:45:11;;;;;;;5.43;4.93;;;;;;;;;;5092640;28;20504;-73
2023/06/05 07:47:39;;;;;;;6.60;5.07;;;;;;;;;;5092839;28;20438;-73
2023/06/05 07:50:07;;;;;;;8.70;6.20;;;;;;;;;;5092695;28;20458;-73
2023/06/05 07:52:34;;;;;;;6.97;4.70;;;;;;;;;;5092687;28;20542;-74
2023/06/05 07:55:01;;;;;;;6.80;5.90;;;;;;;;;;5092603;28;20457;-73
2023/06/05 07:57:30;;;;;;;7.20;6.03;;;;;;;;;;5092656;28;20469;-73
2023/06/05 07:59:57;;;;;;;6.47;5.80;;;;;;;;;;5093420;28;21108;-73
2023/06/05 08:02:24;;;;;;;7.93;5.80;;;;;;;;;;5096969;28;20469;-73
2023/06/05 08:04:51;;;;;;;9.33;6.73;;;;;;;;;;5096644;28;20854;-73
2023/06/05 08:07:18;;;;;;;6.63;5.50;;;;;;;;;;5096330;28;21011;-76
2023/06/05 08:09:45;;;;;;;7.80;6.33;;;;;;;;;;5096117;28;20569;-76
2023/06/05 08:12:12;;;;;;;9.27;6.93;;;;;;;;;;5096214;28;20939;-77
2023/06/05 08:14:41;;;;;;;11.23;6.60;;;;;;;;;;5096446;28;20807;-76
2023/06/05 08:17:08;;;;;;;6.47;5.80;;;;;;;;;;5096049;28;20446;-77
2023/06/05 08:19:35;;;;;;;8.33;6.60;;;;;;;;;;5095812;28;20481;-77
2023/06/05 08:22:04;;;;;;;7.77;7.07;;;;;;;;;;5095952;28;20953;-77
2023/06/05 08:24:31;;;;;;;9.30;6.60;;;;;;;;;;5096127;28;20506;-77
2023/06/05 08:26:59;;;;;;;8.67;7.43;;;;;;;;;;5095907;28;20497;-76
2023/06/05 08:29:27;;;;;;;8.23;7.33;;;;;;;;;;5095603;28;20844;-76
2023/06/05 08:31:56;;;;;;;10.10;6.70;;;;;;;;;;5096075;28;20549;-77
2023/06/05 08:34:25;;;;;;;9.00;7.60;;;;;;;;;;5095683;28;20504;-76
2023/06/05 08:36:52;;;;;;;11.83;7.40;;;;;;;;;;5095838;28;20446;-76
2023/06/05 08:39:20;;;;;;;11.13;7.60;;;;;;;;;;5095278;28;20482;-76
2023/06/05 08:41:51;;;;;;;8.60;7.23;;;;;;;;;;5095849;28;20836;-76
2023/06/05 08:44:18;;;;;;;10.90;8.03;;;;;;;;;;5095593;28;20463;-76
2023/06/05 08:46:45;;;;;;;8.60;7.80;;;;;;;;;;5095893;28;20917;-76
2023/06/05 08:49:16;;;;;;;9.20;8.40;;;;;;;;;;5094871;28;20470;-76
2023/06/05 08:51:44;;;;;;;9.93;7.30;;;;;;;;;;5095716;28;20451;-74
2023/06/05 08:54:13;;;;;;;8.30;7.50;;;;;;;;;;5095176;28;20943;-74
2023/06/05 08:56:41;;;;;;;11.47;8.20;;;;;;;;;;5095111;28;20505;-74
2023/06/05 08:59:08;;;;;;;9.63;8.50;;;;;;;;;;5095160;28;20467;-74
2023/06/05 09:01:37;;;;;;;8.97;8.07;;;;;;;;;;5095327;28;20923;-74
2023/06/05 09:04:04;;;;;;;10.30;8.10;;;;;;;;;;5095020;28;20450;-75
2023/06/05 09:06:33;;;;;;;10.00;7.73;;;;;;;;;;5094925;28;20483;-75
2023/06/05 09:09:01;;;;;;;11.30;8.50;;;;;;;;;;5094848;28;20505;-74
2023/06/05 09:11:29;;;;;;;10.63;9.63;;;;;;;;;;5093795;28;20451;-74
2023/06/05 09:13:57;;;;;;;16.03;8.83;;;;;;;;;;5095150;28;20443;-74
2023/06/05 09:16:24;;;;;;;11.10;9.10;;;;;;;;;;5095039;28;20923;-73
2023/06/05 09:18:55;;;;;;;11.17;8.03;;;;;;;;;;5094783;28;20560;-74
2023/06/05 09:21:28;;;;;;;10.00;8.57;;;;;;;;;;5094655;28;20565;-74
2023/06/05 09:24:11;;;;;;;9.23;8.30;;;;;;;;;;5094952;28;20458;-74
2023/06/05 09:26:47;;;;;;;9.20;8.30;;;;;;;;;;5094731;28;20574;-74
2023/06/05 09:29:14;;;;;;;10.37;9.10;;;;;;;;;;5094426;28;20951;-74
2023/06/05 09:31:43;;;;;;;10.93;9.83;;;;;;;;;;5094638;28;20553;-74
2023/06/05 09:34:10;;;;;;;9.57;8.27;;;;;;;;;;5094500;28;20461;-74
2023/06/05 09:36:46;;;;;;;9.07;7.83;;;;;;;;;;5094731;28;20454;-74
2023/06/05 09:39:18;;;;;;;9.80;8.80;;;;;;;;;;5094198;28;20481;-74
2023/06/05 09:41:45;;;;;;;10.83;9.50;;;;;;;;;;5094403;28;20461;-74
2023/06/05 09:44:12;;;;;;;9.70;8.80;;;;;;;;;;5094405;28;20527;-74
2023/06/05 09:46:51;;;;;;;12.93;9.77;;;;;;;;;;5094307;28;20487;-74
2023/06/05 09:49:18;;;;;;;9.47;8.57;;;;;;;;;;5093795;28;20990;-74
2023/06/05 09:51:46;;;;;;;13.70;8.50;;;;;;;;;;5094286;28;20477;-74
2023/06/05 09:54:14;;;;;;;10.87;9.47;;;;;;;;;;5094243;28;20830;-74
2023/06/05 09:56:42;;;;;;;10.90;9.30;;;;;;;;;;5093995;28;20458;-74
2023/06/05 09:59:10;;;;;;;11.03;8.10;;;;;;;;;;5093960;28;20478;-74
2023/06/05 10:01:37;;;;;;;11.83;9.93;;;;;;;;;;5094019;28;20877;-74
2023/06/05 10:04:07;;;;;;;10.43;8.80;;;;;;;;;;5094107;28;20931;-74
2023/06/05 10:06:35;;;;;;;8.33;7.63;;;;;;;;;;5094358;28;20847;-74
2023/06/05 10:09:02;;;;;;;10.17;8.73;;;;;;;;;;5093755;28;20481;-74
2023/06/05 10:11:30;;;;;;;11.37;9.13;;;;;;;;;;5094154;28;20458;-74
2023/06/05 10:13:59;;;;;;;13.07;7.63;;;;;;;;;;5093965;28;20447;-74
2023/06/05 10:16:27;;;;;;;10.10;9.03;;;;;;;;;;5093805;28;20443;-74
2023/06/05 10:18:55;;;;;;;12.57;9.10;;;;;;;;;;5093547;28;20481;-74
2023/06/05 10:21:22;;;;;;;9.47;8.67;;;;;;;;;;5093562;28;20467;-74
2023/06/05 10:23:50;;;;;;;18.93;9.60;;;;;;;;;;5093493;28;20900;-75
2023/06/05 10:26:24;;;;;;;11.23;9.50;;;;;;;;;;5093439;28;20527;-74
2023/06/05 10:28:53;;;;;;;9.40;8.40;;;;;;;;;;5093333;28;20457;-74
2023/06/05 10:31:28;;;;;;;10.87;9.77;;;;;;;;;;5093518;28;20451;-74
2023/06/05 10:34:16;;;;;;;10.07;9.03;;;;;;;;;;5093406;28;20489;-74
2023/06/05 10:36:58;;;;;;;10.23;9.33;;;;;;;;;;5093564;28;20450;-74
2023/06/05 10:39:26;;;;;;;10.90;9.80;;;;;;;;;;5090918;28;20975;-74
2023/06/05 10:41:53;;;;;;;9.50;8.60;;;;;;;;;;5093681;28;20965;-77
2023/06/05 10:44:20;;;;;;;19.00;11.77;;;;;;;;;;5093264;28;20447;-76
2023/06/05 10:46:49;;;;;;;12.20;10.50;;;;;;;;;;5093275;28;20502;-77
2023/06/05 10:49:17;;;;;;;10.80;9.80;;;;;;;;;;5092697;28;20470;-77
2023/06/05 10:51:45;;;;;;;10.17;9.23;;;;;;;;;;5093474;28;20997;-77
2023/06/05 10:54:15;;;;;;;10.87;9.80;;;;;;;;;;5093191;28;20603;-77
2023/06/05 10:56:59;;;;;;;10.60;9.27;;;;;;;;;;5093016;28;20947;-77
2023/06/05 10:59:27;;;;;;;10.70;9.70;;;;;;;;;;5092881;28;20968;-77
2023/06/05 11:02:16;;;;;;;11.20;10.20;;;;;;;;;;5093325;28;20550;-77
2023/06/05 11:05:04;;;;;;;10.10;9.10;;;;;;;;;;5093020;28;20501;-77
2023/06/05 11:07:33;;;;;;;11.00;10.00;;;;;;;;;;5092831;28;20501;-76
2023/06/05 11:10:15;;;;;;;9.80;8.90;;;;;;;;;;5092588;28;20885;-76
2023/06/05 11:13:01;;;;;;;12.10;10.00;;;;;;;;;;5093089;28;20819;-77
2023/06/05 11:15:44;;;;;;;11.30;10.30;;;;;;;;;;5092770;28;20454;-76
2023/06/05 11:18:30;;;;;;;15.33;11.63;;;;;;;;;;5092897;28;20545;-76
2023/06/05 11:20:58;;;;;;;9.83;8.93;;;;;;;;;;5092932;28;20439;-77
2023/06/05 11:23:27;;;;;;;12.33;9.37;;;;;;;;;;5092713;28;20451;-77
2023/06/05 11:25:57;;;;;;;10.00;9.00;;;;;;;;;;5092864;28;20550;-76
2023/06/05 11:28:40;;;;;;;10.53;9.53;;;;;;;;;;5092265;28;20579;-76
2023/06/05 11:31:08;;;;;;;11.10;9.97;;;;;;;;;;5092560;28;20549;-77
2023/06/05 11:33:35;;;;;;;11.57;10.37;;;;;;;;;;5092614;28;20443;-77
2023/06/05 11:36:03;;;;;;;12.60;9.37;;;;;;;;;;5091715;28;20939;-76
2023/06/05 11:38:31;;;;;;;10.27;9.30;;;;;;;;;;5092435;28;20446;-76
2023/06/05 11:40:58;;;;;;;11.47;10.40;;;;;;;;;;5092294;28;20447;-76
2023/06/05 11:43:25;;;;;;;11.57;10.50;;;;;;;;;;5092582;28;20443;-77
2023/06/05 11:45:53;;;;;;;11.80;10.67;;;;;;;;;;5092590;28;20469;-76
2023/06/05 11:48:21;;;;;;;10.50;9.40;;;;;;;;;;5091563;28;20486;-77
2023/06/05 11:50:55;;;;;;;9.90;9.10;;;;;;;;;;5092420;28;20455;-77
2023/06/05 11:53:22;;;;;;;12.00;10.17;;;;;;;;;;5092184;28;20458;-76
2023/06/05 11:56:06;;;;;;;11.70;10.70;;;;;;;;;;5092517;28;20450;-76
2023/06/05 11:58:36;;;;;;;10.00;9.17;;;;;;;;;;5092137;28;20854;-76
2023/06/05 12:01:07;;;;;;;16.33;10.63;;;;;;;;;;5092406;28;20816;-76
2023/06/05 12:03:35;;;;;;;11.30;10.10;;;;;;;;;;5092349;28;20500;-76
2023/06/05 12:06:03;;;;;;;11.30;9.63;;;;;;;;;;5092181;28;20446;-76
2023/06/05 12:08:32;;;;;;;11.43;10.43;;;;;;;;;;5091894;28;20831;-77
2023/06/05 12:11:00;;;;;;;11.07;9.80;;;;;;;;;;5092239;28;20928;-77
2023/06/05 12:13:46;;;;;;;11.77;10.67;;;;;;;;;;5092071;28;20455;-73
2023/06/05 12:16:13;;;;;;;11.47;10.37;;;;;;;;;;5092311;28;20451;-72
2023/06/05 12:18:40;;;;;;;12.57;11.37;;;;;;;;;;5091948;28;20449;-72
2023/06/05 12:21:07;;;;;;;11.50;10.40;;;;;;;;;;5092123;28;20461;-72
2023/06/05 12:23:34;;;;;;;12.37;10.07;;;;;;;;;;5092005;28;20467;-72
2023/06/05 12:26:03;;;;;;;11.90;10.50;;;;;;;;;;5091973;28;20931;-72
2023/06/05 12:28:31;;;;;;;16.57;10.67;;;;;;;;;;5091794;28;20893;-71
2023/06/05 12:30:58;;;;;;;11.83;10.73;;;;;;;;;;5092288;28;20450;-71
2023/06/05 12:33:25;;;;;;;13.27;11.97;;;;;;;;;;5092007;28;20454;-72
2023/06/05 12:36:05;;;;;;;12.47;11.37;;;;;;;;;;5092448;28;20537;-72
2023/06/05 12:38:38;;;;;;;12.67;11.03;;;;;;;;;;5091844;28;20970;-72
2023/06/05 12:41:07;;;;;;;14.30;13.00;;;;;;;;;;5091802;28;21020;-72
2023/06/05 12:43:34;;;;;;;13.30;12.10;;;;;;;;;;5091775;28;20455;-72
2023/06/05 12:46:01;;;;;;;13.20;11.97;;;;;;;;;;5092905;28;20453;-72
2023/06/05 12:48:29;;;;;;;14.10;11.70;;;;;;;;;;5094916;28;20513;-72
2023/06/05 12:50:56;;;;;;;12.60;11.40;;;;;;;;;;5095194;28;20473;-72
2023/06/05 12:53:23;;;;;;;14.73;13.23;;;;;;;;;;5095590;28;20457;-72
2023/06/05 12:55:50;;;;;;;15.70;14.07;;;;;;;;;;5095621;28;20451;-72
2023/06/05 12:58:19;;;;;;;14.73;13.23;;;;;;;;;;5095069;28;20542;-71
2023/06/05 13:00:46;;;;;;;14.20;11.90;;;;;;;;;;5095182;28;20502;-72
2023/06/05 13:03:13;;;;;;;13.87;12.50;;;;;;;;;;5095325;28;20907;-72
2023/06/05 13:05:40;;;;;;;15.10;13.60;;;;;;;;;;5095275;28;20482;-72
2023/06/05 13:08:08;;;;;;;13.60;12.23;;;;;;;;;;5094922;28;20485;-72
2023/06/05 13:10:35;;;;;;;14.67;13.17;;;;;;;;;;5095414;28;20470;-72
2023/06/05 13:13:02;;;;;;;14.23;12.93;;;;;;;;;;5095234;28;20458;-72
2023/06/05 13:15:31;;;;;;;16.63;13.40;;;;;;;;;;5095009;28;20458;-74
2023/06/05 13:17:58;;;;;;;13.77;11.50;;;;;;;;;;5095337;28;20884;-74
2023/06/05 13:20:25;;;;;;;13.93;12.60;;;;;;;;;;5095036;28;20497;-74
2023/06/05 13:22:53;;;;;;;15.63;13.57;;;;;;;;;;5094897;28;20458;-74
2023/06/05 13:25:20;;;;;;;13.50;12.20;;;;;;;;;;5095144;28;20435;-74
2023/06/05 13:27:47;;;;;;;16.40;14.00;;;;;;;;;;5095088;28;20498;-74
2023/06/05 13:30:14;;;;;;;17.30;13.60;;;;;;;;;;5095025;28;20478;-74
2023/06/05 13:32:45;;;;;;;15.00;13.50;;;;;;;;;;5094994;28;20818;-74
2023/06/05 13:35:12;;;;;;;14.43;12.93;;;;;;;;;;5094699;28;20451;-74
2023/06/05 13:37:40;;;;;;;14.77;13.30;;;;;;;;;;5094774;28;20493;-75
2023/06/05 13:40:10;;;;;;;15.83;14.27;;;;;;;;;;5094925;28;20471;-74
2023/06/05 13:42:37;;;;;;;18.73;16.23;;;;;;;;;;5094778;28;20477;-74
2023/06/05 13:45:04;;;;;;;15.33;13.90;;;;;;;;;;5094818;28;20457;-74
2023/06/05 13:47:32;;;;;;;14.80;13.40;;;;;;;;;;5094564;28;20582;-74
2023/06/05 13:50:00;;;;;;;17.07;15.00;;;;;;;;;;5094742;28;20962;-74
2023/06/05 13:52:27;;;;;;;17.03;14.67;;;;;;;;;;5094403;28;20486;-74
2023/06/05 13:54:54;;;;;;;15.73;14.23;;;;;;;;;;5094330;28;20450;-74
2023/06/05 13:57:21;;;;;;;15.50;14.00;;;;;;;;;;5093608;28;20463;-74
2023/06/05 13:59:48;;;;;;;14.97;13.57;;;;;;;;;;5094326;28;20989;-75
2023/06/05 14:02:15;;;;;;;15.37;13.93;;;;;;;;;;5094638;28;20474;-75
2023/06/05 14:04:42;;;;;;;18.27;16.37;;;;;;;;;;5094381;28;20451;-74
2023/06/05 14:07:11;;;;;;;18.80;15.23;;;;;;;;;;5094360;28;20454;-74
2023/06/05 14:09:38;;;;;;;18.23;15.77;;;;;;;;;;5094246;28;21001;-74
2023/06/05 14:12:05;;;;;;;20.37;15.90;;;;;;;;;;5094312;28;20451;-75
2023/06/05 14:14:32;;;;;;;19.47;15.93;;;;;;;;;;5094143;28;20455;-75
2023/06/05 14:16:59;;;;;;;18.67;16.77;;;;;;;;;;5094215;28;20475;-75
2023/06/05 14:19:26;;;;;;;16.50;14.90;;;;;;;;;;5094107;28;20478;-75
2023/06/05 14:21:55;;;;;;;17.90;16.00;;;;;;;;;;5093820;28;20453;-74
2023/06/05 14:24:24;;;;;;;17.80;16.00;;;;;;;;;;5094208;28;20465;-74
2023/06/05 14:26:51;;;;;;;20.30;15.97;;;;;;;;;;5093656;28;20480;-74
2023/06/05 14:29:19;;;;;;;16.83;15.13;;;;;;;;;;5093469;28;20856;-74
2023/06/05 14:31:46;;;;;;;17.47;15.70;;;;;;;;;;5093654;28;20455;-74
2023/06/05 14:34:13;;;;;;;16.10;14.40;;;;;;;;;;5093432;28;20455;-74
2023/06/05 14:36:40;;;;;;;19.20;16.73;;;;;;;;;;5093400;28;20462;-74
2023/06/05 14:39:07;;;;;;;17.87;16.27;;;;;;;;;;5093079;28;20477;-74